createdAt,value
2022-09-03T00:01:55.355Z,114490.28
2022-09-03T00:04:03.548Z,114490.28
2022-09-03T00:06:30.373Z,114490.28
2022-09-03T00:08:41.100Z,114490.28
2022-09-03T00:10:45.924Z,114490.28
2022-09-03T00:12:53.022Z,114490.28
2022-09-03T00:15:03.000Z,114490.28
2022-09-03T00:17:09.879Z,114490.28
2022-09-03T00:19:14.865Z,114490.28
2022-09-03T00:21:27.817Z,114490.28
2022-09-03T00:23:32.554Z,114490.28
2022-09-03T00:25:40.646Z,114490.28
2022-09-03T00:27:47.463Z,114490.28
2022-09-03T00:29:59.373Z,114490.28
2022-09-03T00:32:08.366Z,114490.28
2022-09-03T00:34:18.923Z,114490.28
2022-09-03T00:36:27.154Z,114490.28
2022-09-03T00:38:31.465Z,114490.28
2022-09-03T00:40:47.012Z,114490.28
2022-09-03T00:43:03.070Z,114490.28
2022-09-03T00:45:10.288Z,114490.28
2022-09-03T00:47:20.100Z,114490.28
2022-09-03T00:49:48.383Z,114490.28
2022-09-03T00:52:07.398Z,114490.28
2022-09-03T00:54:34.027Z,114490.28
2022-09-03T00:56:43.939Z,114490.28
2022-09-03T00:59:06.269Z,114490.28
2022-09-03T01:01:30.372Z,114490.28
2022-09-03T01:03:34.682Z,114490.28
2022-09-03T01:05:38.980Z,114490.28
2022-09-03T01:07:51.756Z,114490.28
2022-09-03T01:09:56.316Z,114490.28
2022-09-03T01:12:19.449Z,114490.28
2022-09-03T01:14:24.135Z,114490.28
2022-09-03T01:16:36.455Z,114490.28
2022-09-03T01:18:53.283Z,114490.28
2022-09-03T01:21:13.193Z,114490.28
2022-09-03T01:23:26.310Z,114490.28
2022-09-03T01:25:50.498Z,114490.28
2022-09-03T01:28:14.854Z,114490.28
2022-09-03T01:30:25.523Z,114490.28
2022-09-03T01:32:32.503Z,114490.28
2022-09-03T01:35:02.777Z,114490.28
2022-09-03T01:37:20.399Z,114490.28
2022-09-03T01:39:24.614Z,114490.28
2022-09-03T01:42:05.744Z,114490.28
2022-09-03T01:44:10.645Z,114490.28
2022-09-03T01:46:21.270Z,114490.28
2022-09-03T01:48:40.505Z,114490.28
2022-09-03T01:50:51.210Z,114490.28
2022-09-03T01:52:58.751Z,114490.28
2022-09-03T01:55:09.532Z,114490.28
2022-09-03T01:57:35.482Z,114490.28
2022-09-03T01:59:44.002Z,114490.28
2022-09-03T02:02:08.211Z,114490.28
2022-09-03T02:04:21.733Z,114490.28
2022-09-03T02:06:26.422Z,114490.28
2022-09-03T02:08:33.219Z,114490.28
2022-09-03T02:10:37.520Z,114490.28
2022-09-03T02:12:44.548Z,114490.28
2022-09-03T02:14:49.898Z,114490.28
2022-09-03T02:16:55.815Z,114490.28
2022-09-03T02:19:02.888Z,114490.28
2022-09-03T02:21:07.640Z,114490.28
2022-09-03T02:23:12.456Z,114490.28
2022-09-03T02:25:17.269Z,114490.28
2022-09-03T02:27:23.575Z,114490.28
2022-09-03T02:29:28.906Z,114490.28
2022-09-03T02:31:33.929Z,114490.28
2022-09-03T02:33:42.738Z,114490.28
2022-09-03T02:35:49.209Z,114490.28
2022-09-03T02:37:53.250Z,114490.28
2022-09-03T02:39:57.620Z,114490.28
2022-09-03T02:42:01.937Z,114490.28
2022-09-03T02:44:13.595Z,114490.28
2022-09-03T02:46:29.252Z,114490.28
2022-09-03T02:48:34.174Z,114490.28
2022-09-03T02:50:44.882Z,114490.28
2022-09-03T02:52:49.406Z,114490.28
2022-09-03T02:54:55.247Z,114490.28
2022-09-03T02:56:59.794Z,114490.28
2022-09-03T02:59:04.768Z,114490.28
2022-09-03T03:01:09.728Z,114490.28
2022-09-03T03:03:14.142Z,114490.28
2022-09-03T03:05:26.594Z,114490.28
2022-09-03T03:07:35.027Z,114490.28
2022-09-03T03:09:39.255Z,114354.06
2022-09-03T03:11:45.251Z,113727.25
2022-09-03T03:13:49.633Z,113513.00
2022-09-03T03:15:54.026Z,112822.25
2022-09-03T03:17:58.753Z,111399.06
2022-09-03T03:20:02.903Z,111667.25
2022-09-03T03:22:06.925Z,111449.09
2022-09-03T03:24:11.599Z,109506.25
2022-09-03T03:26:16.776Z,108620.19
2022-09-03T03:28:21.787Z,106896.59
2022-09-03T03:30:27.640Z,106414.81
2022-09-03T03:32:31.510Z,105409.53
2022-09-03T03:34:38.898Z,105313.59
2022-09-03T03:36:43.063Z,105525.44
2022-09-03T03:38:47.324Z,107112.50
2022-09-03T03:40:51.288Z,108704.19
2022-09-03T03:42:55.998Z,110578.59
2022-09-03T03:44:59.904Z,111184.94
2022-09-03T03:47:07.353Z,110282.47
2022-09-03T03:49:12.226Z,110324.50
2022-09-03T03:51:17.323Z,110464.56
2022-09-03T03:53:22.119Z,110292.47
2022-09-03T03:55:27.109Z,110242.47
2022-09-03T03:57:31.649Z,110156.44
2022-09-03T03:59:35.156Z,109700.28
2022-09-03T04:01:40.924Z,109698.28
2022-09-03T04:03:45.505Z,109908.34
2022-09-03T04:06:00.140Z,109884.34
2022-09-03T04:08:05.787Z,109652.28
2022-09-03T04:10:10.264Z,109894.34
2022-09-03T04:12:14.394Z,109840.34
2022-09-03T04:14:22.859Z,109226.22
2022-09-03T04:16:30.723Z,109000.19
2022-09-03T04:18:39.020Z,105951.13
2022-09-03T04:20:42.970Z,105955.13
2022-09-03T04:22:49.115Z,105421.50
2022-09-03T04:24:55.783Z,105375.56
2022-09-03T04:26:59.573Z,104424.44
2022-09-03T04:29:07.484Z,104276.59
2022-09-03T04:31:12.784Z,104396.47
2022-09-03T04:33:17.177Z,104270.59
2022-09-03T04:35:22.212Z,104144.75
2022-09-03T04:37:25.847Z,103879.06
2022-09-03T04:39:29.809Z,103651.34
2022-09-03T04:41:34.306Z,103267.81
2022-09-03T04:43:38.578Z,103036.16
2022-09-03T04:45:42.607Z,102275.28
2022-09-03T04:47:48.051Z,99412.84
2022-09-03T04:49:51.964Z,97764.94
2022-09-03T04:51:55.996Z,95896.44
2022-09-03T04:54:04.786Z,94200.16
2022-09-03T04:56:16.572Z,90779.88
2022-09-03T04:58:23.823Z,90168.63
2022-09-03T05:00:27.954Z,84202.44
2022-09-03T05:02:31.829Z,73097.38
2022-09-03T05:04:35.521Z,72712.81
2022-09-03T05:06:39.478Z,70239.75
2022-09-03T05:08:43.225Z,66255.97
2022-09-03T05:10:47.159Z,63462.53
2022-09-03T05:13:04.002Z,61105.91
2022-09-03T05:15:08.004Z,56748.19
2022-09-03T05:17:11.771Z,54208.09
2022-09-03T05:19:15.796Z,53107.28
2022-09-03T05:21:19.902Z,51701.16
2022-09-03T05:23:23.539Z,51137.25
2022-09-03T05:25:27.151Z,50764.66
2022-09-03T05:27:32.777Z,50555.69
2022-09-03T05:29:36.649Z,49731.81
2022-09-03T05:31:40.914Z,49660.88
2022-09-03T05:33:46.152Z,49572.19
2022-09-03T05:35:49.940Z,49528.84
2022-09-03T05:37:55.653Z,49528.84
2022-09-03T05:39:59.618Z,49520.94
2022-09-03T05:42:03.383Z,49509.13
2022-09-03T05:44:07.356Z,49511.09
2022-09-03T05:46:16.653Z,49507.16
2022-09-03T05:48:20.260Z,49501.25
2022-09-03T05:50:26.013Z,49499.28
2022-09-03T05:52:29.859Z,49501.25
2022-09-03T05:54:33.936Z,49499.28
2022-09-03T05:56:39.018Z,49499.28
2022-09-03T05:58:45.138Z,49497.31
2022-09-03T06:00:50.379Z,49501.25
2022-09-03T06:02:54.410Z,49501.25
2022-09-03T06:04:59.005Z,49497.31
2022-09-03T06:07:02.711Z,49491.38
2022-09-03T06:09:08.124Z,49489.41
2022-09-03T06:11:13.017Z,49487.44
2022-09-03T06:13:16.937Z,49491.38
2022-09-03T06:15:20.720Z,49487.44
2022-09-03T06:17:24.236Z,49477.59
2022-09-03T06:19:28.507Z,49477.59
2022-09-03T06:21:31.990Z,49479.56
2022-09-03T06:23:36.239Z,49477.59
2022-09-03T06:25:40.435Z,49477.59
2022-09-03T06:27:46.921Z,49475.63
2022-09-03T06:29:51.099Z,49473.66
2022-09-03T06:31:55.048Z,49479.56
2022-09-03T06:34:03.854Z,49475.63
2022-09-03T06:36:09.263Z,49473.66
2022-09-03T06:38:16.538Z,49477.59
2022-09-03T06:40:23.661Z,49473.66
2022-09-03T06:42:28.277Z,49479.56
2022-09-03T06:44:32.033Z,49477.59
2022-09-03T06:46:37.424Z,49475.63
2022-09-03T06:48:42.443Z,49477.59
2022-09-03T06:50:59.244Z,49473.66
2022-09-03T06:53:02.939Z,49471.69
2022-09-03T06:55:06.535Z,49475.63
2022-09-03T06:57:10.539Z,49475.63
2022-09-03T06:59:15.677Z,49477.59
2022-09-03T07:01:20.696Z,49475.63
2022-09-03T07:03:24.335Z,49473.66
2022-09-03T07:05:29.803Z,49477.59
2022-09-03T07:07:33.549Z,49475.63
2022-09-03T07:09:39.592Z,49475.63
2022-09-03T07:11:48.820Z,49475.63
2022-09-03T07:13:53.286Z,49475.63
2022-09-03T07:16:01.513Z,49471.69
2022-09-03T07:18:05.200Z,49473.66
2022-09-03T07:20:09.031Z,49475.63
2022-09-03T07:22:13.338Z,49477.59
2022-09-03T07:24:17.130Z,49473.66
2022-09-03T07:26:22.882Z,49477.59
2022-09-03T07:28:26.981Z,49473.66
2022-09-03T07:30:30.969Z,49475.63
2022-09-03T07:32:34.932Z,49477.59
2022-09-03T07:34:38.621Z,49473.66
2022-09-03T07:36:46.856Z,49473.66
2022-09-03T07:38:54.058Z,49471.69
2022-09-03T07:41:01.619Z,49471.69
2022-09-03T07:43:05.478Z,49469.72
2022-09-03T07:45:13.690Z,49471.69
2022-09-03T07:47:23.253Z,49473.66
2022-09-03T07:49:30.851Z,49471.69
2022-09-03T07:51:36.715Z,49473.66
2022-09-03T07:53:40.266Z,49473.66
2022-09-03T07:55:45.288Z,49467.75
2022-09-03T07:57:49.990Z,49467.75
2022-09-03T07:59:54.053Z,49469.72
2022-09-03T08:01:58.139Z,49469.72
2022-09-03T08:04:02.692Z,49469.72
2022-09-03T08:06:08.300Z,49469.72
2022-09-03T08:08:11.937Z,49469.72
2022-09-03T08:10:19.936Z,49471.69
2022-09-03T08:12:25.041Z,49467.75
2022-09-03T08:14:28.898Z,49469.72
2022-09-03T08:16:34.337Z,49465.78
2022-09-03T08:18:43.371Z,49471.69
2022-09-03T08:20:48.581Z,49471.69
2022-09-03T08:22:52.958Z,49473.66
2022-09-03T08:24:56.838Z,49475.63
2022-09-03T08:27:00.571Z,49471.69
2022-09-03T08:29:04.427Z,49471.69
2022-09-03T08:31:13.574Z,49473.66
2022-09-03T08:33:17.222Z,49469.72
2022-09-03T08:35:23.037Z,49471.69
2022-09-03T08:37:29.997Z,49471.69
2022-09-03T08:39:33.946Z,49469.72
2022-09-03T08:41:40.635Z,49469.72
2022-09-03T08:43:44.457Z,49471.69
2022-09-03T08:45:48.700Z,49469.72
2022-09-03T08:48:06.848Z,49473.66
2022-09-03T08:50:30.839Z,49469.72
2022-09-03T08:52:50.246Z,49471.69
2022-09-03T08:54:57.237Z,49471.69
2022-09-03T08:57:04.252Z,49469.72
2022-09-03T08:59:07.878Z,49469.72
2022-09-03T09:01:12.808Z,49467.75
2022-09-03T09:03:16.634Z,49469.72
2022-09-03T09:05:33.787Z,49473.66
2022-09-03T09:07:46.954Z,49473.66
2022-09-03T09:09:51.115Z,49473.66
2022-09-03T09:12:00.977Z,49471.69
2022-09-03T09:14:09.056Z,49473.66
2022-09-03T09:16:12.963Z,49471.69
2022-09-03T09:18:17.197Z,49477.59
2022-09-03T09:20:21.198Z,49471.69
2022-09-03T09:22:38.255Z,49473.66
2022-09-03T09:24:45.237Z,49473.66
2022-09-03T09:26:49.288Z,49475.63
2022-09-03T09:28:59.741Z,49473.66
2022-09-03T09:31:06.242Z,49471.69
2022-09-03T09:33:09.941Z,49471.69
2022-09-03T09:35:13.831Z,49471.69
2022-09-03T09:37:18.502Z,49473.66
2022-09-03T09:39:23.654Z,49471.69
2022-09-03T09:41:29.835Z,49469.72
2022-09-03T09:43:34.173Z,49473.66
2022-09-03T09:45:41.876Z,49475.63
2022-09-03T09:47:45.513Z,49473.66
2022-09-03T09:49:57.177Z,49471.69
2022-09-03T09:52:13.019Z,49469.72
2022-09-03T09:54:21.349Z,49463.81
2022-09-03T09:56:25.991Z,49471.69
2022-09-03T09:58:32.015Z,49473.66
2022-09-03T10:00:39.795Z,49467.75
2022-09-03T10:02:55.727Z,49471.69
2022-09-03T10:05:03.558Z,49465.78
2022-09-03T10:07:25.907Z,49469.72
2022-09-03T10:09:31.827Z,49469.72
2022-09-03T10:11:41.363Z,49471.69
2022-09-03T10:13:46.890Z,49469.72
2022-09-03T10:15:52.249Z,49471.69
2022-09-03T10:18:01.801Z,49469.72
2022-09-03T10:20:32.485Z,49469.72
2022-09-03T10:22:56.479Z,49473.66
2022-09-03T10:25:04.002Z,49467.75
2022-09-03T10:27:13.890Z,49469.72
2022-09-03T10:29:30.486Z,49469.72
2022-09-03T10:31:40.725Z,49473.66
2022-09-03T10:33:50.572Z,49469.72
2022-09-03T10:35:58.315Z,49471.69
2022-09-03T10:38:20.545Z,49469.72
2022-09-03T10:40:47.103Z,49467.75
2022-09-03T10:43:06.166Z,49465.78
2022-09-03T10:45:20.170Z,49471.69
2022-09-03T10:47:54.306Z,49469.72
2022-09-03T10:50:18.523Z,49471.69
2022-09-03T10:52:45.379Z,49469.72
2022-09-03T10:54:58.495Z,49473.66
2022-09-03T10:57:14.253Z,49471.69
2022-09-03T10:59:18.197Z,49471.69
2022-09-03T11:01:37.693Z,49471.69
2022-09-03T11:03:54.058Z,49471.69
2022-09-03T11:06:04.135Z,49473.66
2022-09-03T11:08:18.463Z,49469.72
2022-09-03T11:10:33.014Z,49473.66
2022-09-03T11:12:53.321Z,49473.66
2022-09-03T11:15:17.242Z,49473.66
2022-09-03T11:17:32.125Z,49471.69
2022-09-03T11:19:39.493Z,49475.63
2022-09-03T11:21:45.025Z,49471.69
2022-09-03T11:23:55.283Z,49473.66
2022-09-03T11:26:02.466Z,49473.66
2022-09-03T11:28:22.234Z,49477.59
2022-09-03T11:30:30.890Z,49473.66
2022-09-03T11:32:34.375Z,49473.66
2022-09-03T11:34:47.470Z,49473.66
2022-09-03T11:36:51.302Z,49469.72
2022-09-03T11:38:55.386Z,49471.69
2022-09-03T11:41:01.421Z,49473.66
2022-09-03T11:43:23.752Z,49475.63
2022-09-03T11:45:33.197Z,49473.66
2022-09-03T11:47:41.639Z,49473.66
2022-09-03T11:50:05.610Z,49473.66
2022-09-03T11:52:11.855Z,49475.63
2022-09-03T11:54:15.707Z,49475.63
2022-09-03T11:56:21.154Z,49477.59
2022-09-03T11:58:28.056Z,49475.63
2022-09-03T12:00:32.455Z,49477.59
2022-09-03T12:02:40.041Z,49477.59
2022-09-03T12:04:56.414Z,49473.66
2022-09-03T12:07:20.097Z,49477.59
2022-09-03T12:09:24.546Z,49473.66
2022-09-03T12:11:47.013Z,49471.69
2022-09-03T12:14:06.395Z,49471.69
2022-09-03T12:16:13.281Z,49473.66
2022-09-03T12:18:30.635Z,49469.72
2022-09-03T12:20:34.280Z,49471.69
2022-09-03T12:22:39.827Z,49469.72
2022-09-03T12:24:47.697Z,49471.69
2022-09-03T12:26:51.674Z,49471.69
2022-09-03T12:28:58.660Z,49471.69
2022-09-03T12:31:23.656Z,49469.72
2022-09-03T12:33:29.816Z,49469.72
2022-09-03T12:38:06.617Z,49467.75
2022-09-03T12:40:22.505Z,49467.75
2022-09-03T12:42:28.260Z,49463.81
2022-09-03T12:44:32.458Z,49467.75
2022-09-03T12:46:36.568Z,49465.78
2022-09-03T12:48:43.617Z,49469.72
2022-09-03T12:50:56.533Z,49467.75
2022-09-03T12:53:02.894Z,49465.78
2022-09-03T12:55:29.445Z,49465.78
2022-09-03T12:57:36.559Z,49465.78
2022-09-03T12:59:48.499Z,49461.81
2022-09-03T13:01:55.451Z,49465.78
2022-09-03T13:04:04.253Z,49461.81
2022-09-03T13:06:13.497Z,49459.84
2022-09-03T13:08:22.351Z,49461.81
2022-09-03T13:10:39.067Z,49465.78
2022-09-03T13:12:53.354Z,49461.81
2022-09-03T13:14:57.685Z,49457.88
2022-09-03T13:17:05.296Z,49459.84
2022-09-03T13:19:20.964Z,49459.84
2022-09-03T13:21:41.431Z,49459.84
2022-09-03T13:23:45.188Z,49455.91
2022-09-03T13:25:53.668Z,49459.84
2022-09-03T13:28:06.604Z,49463.81
2022-09-03T13:30:12.936Z,49459.84
2022-09-03T13:32:31.351Z,49461.81
2022-09-03T13:34:41.538Z,49459.84
2022-09-03T13:36:56.309Z,49457.88
2022-09-03T13:39:07.832Z,49467.75
2022-09-03T13:41:20.712Z,49467.75
2022-09-03T13:43:32.229Z,49485.47
2022-09-03T13:45:42.500Z,49485.47
2022-09-03T13:48:08.178Z,49491.38
2022-09-03T13:50:23.370Z,49522.91
2022-09-03T13:52:32.905Z,49536.72
2022-09-03T13:54:49.157Z,49613.56
2022-09-03T13:57:01.849Z,49662.84
2022-09-03T13:59:09.891Z,50210.75
2022-09-03T14:01:21.356Z,51058.41
2022-09-03T14:03:33.882Z,52375.56
2022-09-03T14:05:41.676Z,56771.88
2022-09-03T14:08:15.039Z,61744.34
2022-09-03T14:10:21.928Z,64131.03
2022-09-03T14:12:48.083Z,66050.16
2022-09-03T14:14:51.838Z,74217.59
2022-09-03T14:17:16.087Z,78268.91
2022-09-03T14:19:36.440Z,78798.91
2022-09-03T14:21:59.538Z,87499.75
2022-09-03T14:24:12.228Z,90377.66
2022-09-03T14:26:31.075Z,93415.03
2022-09-03T14:28:46.123Z,97507.66
2022-09-03T14:31:12.879Z,97922.53
2022-09-03T14:33:22.050Z,103000.19
2022-09-03T14:35:37.542Z,104666.19
2022-09-03T14:37:59.624Z,106260.91
2022-09-03T14:40:13.544Z,106566.75
2022-09-03T14:42:35.368Z,107292.44
2022-09-03T14:44:48.061Z,108668.19
2022-09-03T14:47:04.222Z,109646.28
2022-09-03T14:49:25.922Z,109884.34
2022-09-03T14:51:44.583Z,111018.84
2022-09-03T14:53:48.823Z,110622.63
2022-09-03T14:56:08.288Z,110800.72
2022-09-03T14:58:21.180Z,111647.22
2022-09-03T15:00:48.440Z,111156.91
2022-09-03T15:02:55.881Z,112295.75
2022-09-03T15:05:18.243Z,113551.03
2022-09-03T15:07:40.114Z,113523.00
2022-09-03T15:09:47.476Z,114257.94
2022-09-03T15:11:59.810Z,114460.22
2022-09-03T15:14:03.327Z,114490.28
2022-09-03T15:16:19.496Z,114490.28
2022-09-03T15:18:52.633Z,114490.28
2022-09-03T15:21:04.227Z,114490.28
2022-09-03T15:23:16.522Z,114490.28
2022-09-03T15:25:38.870Z,114490.28
2022-09-03T15:27:52.865Z,114490.28
2022-09-03T15:30:07.426Z,114490.28
2022-09-03T15:32:22.110Z,114490.28
2022-09-03T15:34:29.117Z,114490.28
2022-09-03T15:36:37.487Z,114490.28
2022-09-03T15:38:44.543Z,114490.28
2022-09-03T15:40:47.971Z,114490.28
2022-09-03T15:42:54.428Z,114490.28
2022-09-03T15:45:08.881Z,114490.28
2022-09-03T15:47:50.467Z,114490.28
2022-09-03T15:50:11.900Z,114490.28
2022-09-03T15:52:29.061Z,114490.28
2022-09-03T15:54:45.754Z,114490.28
2022-09-03T15:57:18.373Z,114490.28
2022-09-03T15:59:38.428Z,114490.28
2022-09-03T16:02:00.849Z,114490.28
2022-09-03T16:04:11.863Z,114490.28
2022-09-03T16:06:21.978Z,114490.28
2022-09-03T16:08:26.920Z,114490.28
2022-09-03T16:10:45.815Z,114490.28
2022-09-03T16:12:49.887Z,114490.28
2022-09-03T16:15:08.508Z,114490.28
2022-09-03T16:17:15.093Z,114490.28
2022-09-03T16:19:19.350Z,114490.28
2022-09-03T16:21:28.841Z,114490.28
2022-09-03T16:23:53.576Z,114490.28
2022-09-03T16:26:06.515Z,114490.28
2022-09-03T16:28:17.786Z,114490.28
2022-09-03T16:30:30.156Z,114490.28
2022-09-03T16:32:39.285Z,114490.28
2022-09-03T16:34:48.858Z,114490.28
2022-09-03T16:37:12.067Z,114490.28
2022-09-03T16:39:38.419Z,114490.28
2022-09-03T16:41:45.553Z,114490.28
2022-09-03T16:43:49.556Z,114490.28
2022-09-03T16:46:01.921Z,114490.28
2022-09-03T16:48:24.038Z,114490.28
2022-09-03T16:50:41.804Z,114490.28
2022-09-03T16:53:06.067Z,114490.28
2022-09-03T16:55:15.862Z,114490.28
2022-09-03T16:57:37.909Z,114490.28
2022-09-03T17:00:00.136Z,114490.28
2022-09-03T17:02:23.751Z,114490.28
2022-09-03T17:04:46.564Z,114490.28
2022-09-03T17:06:56.135Z,114490.28
2022-09-03T17:09:18.430Z,114490.28
2022-09-03T17:11:43.619Z,114490.28
2022-09-03T17:13:59.887Z,114490.28
2022-09-03T17:16:24.906Z,114490.28
2022-09-03T17:18:28.984Z,114490.28
2022-09-03T17:20:48.571Z,114490.28
2022-09-03T17:23:11.470Z,114490.28
2022-09-03T17:25:26.003Z,114490.28
2022-09-03T17:27:50.183Z,114490.28
2022-09-03T17:29:56.487Z,114490.28
2022-09-03T17:32:13.332Z,114490.28
2022-09-03T17:34:17.331Z,114490.28
2022-09-03T17:36:27.425Z,114490.28
2022-09-03T17:38:38.068Z,114490.28
2022-09-03T17:40:48.484Z,114490.28
2022-09-03T17:43:04.544Z,114490.28
2022-09-03T17:45:08.044Z,114490.28
2022-09-03T17:47:30.534Z,114490.28
2022-09-03T17:49:42.165Z,114490.28
2022-09-03T17:51:49.721Z,114490.28
2022-09-03T17:54:01.869Z,114490.28
2022-09-03T17:56:20.092Z,114490.28
2022-09-03T17:58:29.810Z,114490.28
2022-09-03T18:00:51.602Z,114490.28
2022-09-03T18:03:04.324Z,114490.28
2022-09-03T18:05:26.163Z,114490.28
2022-09-03T18:07:30.105Z,114490.28
2022-09-03T18:09:43.008Z,114490.28
2022-09-03T18:11:49.836Z,114490.28
2022-09-03T18:13:56.535Z,114490.28
2022-09-03T18:16:08.753Z,114490.28
2022-09-03T18:18:19.446Z,114490.28
2022-09-03T18:20:42.202Z,114490.28
2022-09-03T18:23:15.757Z,114490.28
2022-09-03T18:25:38.729Z,114490.28
2022-09-03T18:28:04.377Z,114490.28
2022-09-03T18:30:27.643Z,114490.28
2022-09-03T18:32:49.786Z,114490.28
2022-09-03T18:35:12.011Z,114490.28
2022-09-03T18:37:36.334Z,114490.28
2022-09-03T18:39:59.219Z,114490.28
2022-09-03T18:42:30.723Z,114490.28
2022-09-03T18:45:24.335Z,114490.28
2022-09-03T18:48:03.688Z,114490.28
2022-09-03T18:50:36.995Z,114490.28
2022-09-03T18:53:12.401Z,114490.28
2022-09-03T18:55:41.022Z,114490.28
2022-09-03T18:58:21.883Z,114490.28
2022-09-03T19:00:50.907Z,114490.28
2022-09-03T19:03:19.107Z,114490.28
2022-09-03T19:05:59.791Z,114490.28
2022-09-03T19:08:24.802Z,114490.28
2022-09-03T19:10:53.452Z,114490.28
2022-09-03T19:13:35.730Z,114490.28
2022-09-03T19:16:03.563Z,114490.28
2022-09-03T19:18:29.241Z,114490.28
2022-09-03T19:20:55.065Z,114490.28
2022-09-03T19:23:17.359Z,114490.28
2022-09-03T19:25:40.023Z,114490.28
2022-09-03T19:28:21.479Z,114490.28
2022-09-03T19:30:59.181Z,114490.28
2022-09-03T19:33:21.188Z,114490.28
2022-09-03T19:35:48.903Z,114490.28
2022-09-03T19:38:29.776Z,114490.28
2022-09-03T19:40:51.928Z,114490.28
2022-09-03T19:43:16.657Z,114490.28
2022-09-03T19:46:02.187Z,114490.28
2022-09-03T19:48:34.706Z,114490.28
2022-09-03T19:51:00.500Z,114490.28
2022-09-03T19:53:28.814Z,114490.28
2022-09-03T19:55:53.907Z,114490.28
2022-09-03T19:58:41.508Z,114490.28
2022-09-03T20:01:04.862Z,114490.28
2022-09-03T20:03:27.430Z,114490.28
2022-09-03T20:05:49.490Z,114490.28
2022-09-03T20:08:14.671Z,114490.28
2022-09-03T20:10:25.029Z,114490.28
2022-09-03T20:12:32.887Z,114490.28
2022-09-03T20:14:38.034Z,114490.28
2022-09-03T20:16:56.028Z,114490.28
2022-09-03T20:19:13.998Z,114490.28
2022-09-03T20:21:36.072Z,114490.28
2022-09-03T20:23:46.664Z,114490.28
2022-09-03T20:25:50.168Z,114490.28
2022-09-03T20:28:12.066Z,114490.28
2022-09-03T20:30:23.705Z,114490.28
2022-09-03T20:32:46.011Z,114490.28
2022-09-03T20:34:58.915Z,114490.28
2022-09-03T20:37:12.508Z,114490.28
2022-09-03T20:39:35.518Z,114490.28
2022-09-03T20:41:58.888Z,114490.28
2022-09-03T20:44:28.342Z,114490.28
2022-09-03T20:46:51.048Z,114490.28
2022-09-03T20:49:01.255Z,114490.28
2022-09-03T20:51:14.645Z,114490.28
2022-09-03T20:53:39.277Z,114490.28
2022-09-03T20:55:44.129Z,114490.28
2022-09-03T20:58:07.028Z,114490.28
2022-09-03T21:00:15.039Z,114490.28
2022-09-03T21:02:39.367Z,114490.28
2022-09-03T21:04:54.651Z,114490.28
2022-09-03T21:07:13.199Z,114490.28
2022-09-03T21:09:37.010Z,114490.28
2022-09-03T21:11:50.347Z,114490.28
2022-09-03T21:14:00.079Z,114490.28
2022-09-03T21:16:06.632Z,114490.28
2022-09-03T21:18:10.234Z,114490.28
2022-09-03T21:20:22.943Z,114490.28
2022-09-03T21:22:35.152Z,114490.28
2022-09-03T21:24:48.997Z,114490.28
2022-09-03T21:26:55.222Z,114490.28
2022-09-03T21:29:05.089Z,114490.28
2022-09-03T21:31:18.649Z,114490.28
2022-09-03T21:33:28.510Z,114490.28
2022-09-03T21:35:35.014Z,114490.28
2022-09-03T21:37:39.899Z,114490.28
2022-09-03T21:39:55.863Z,114490.28
2022-09-03T21:42:12.387Z,114490.28
2022-09-03T21:44:16.221Z,114490.28
2022-09-03T21:46:26.211Z,114490.28
2022-09-03T21:48:30.487Z,114490.28
2022-09-03T21:50:47.963Z,114490.28
2022-09-03T21:52:54.757Z,114490.28
2022-09-03T21:54:58.426Z,114490.28
2022-09-03T21:57:07.194Z,114490.28
2022-09-03T21:59:13.411Z,114490.28
2022-09-03T22:01:21.362Z,114490.28
2022-09-03T22:03:25.199Z,114490.28
2022-09-03T22:05:42.762Z,114490.28
2022-09-03T22:07:53.550Z,114490.28
2022-09-03T22:10:23.427Z,114490.28
2022-09-03T22:12:42.451Z,114490.28
2022-09-03T22:14:56.083Z,114490.28
2022-09-03T22:17:11.962Z,114490.28
2022-09-03T22:19:16.925Z,114490.28
2022-09-03T22:21:24.620Z,114490.28
2022-09-03T22:23:46.240Z,114490.28
2022-09-03T22:26:00.058Z,114490.28
2022-09-03T22:28:11.495Z,114490.28
2022-09-03T22:30:22.709Z,114490.28
2022-09-03T22:32:36.755Z,114490.28
2022-09-03T22:34:58.791Z,114490.28
2022-09-03T22:37:07.015Z,114490.28
2022-09-03T22:39:30.486Z,114490.28
2022-09-03T22:41:40.959Z,114490.28
2022-09-03T22:43:47.097Z,114490.28
2022-09-03T22:46:08.783Z,114490.28
2022-09-03T22:48:15.420Z,114490.28
2022-09-03T22:50:37.881Z,114490.28
2022-09-03T22:52:50.516Z,114490.28
2022-09-03T22:55:15.069Z,114490.28
2022-09-03T22:57:20.892Z,114490.28
2022-09-03T22:59:31.376Z,114490.28
2022-09-03T23:01:49.921Z,114490.28
2022-09-03T23:03:56.811Z,114490.28
2022-09-03T23:06:05.062Z,114490.28
2022-09-03T23:08:10.661Z,114490.28
2022-09-03T23:10:24.404Z,114490.28
2022-09-03T23:12:34.788Z,114490.28
2022-09-03T23:14:42.688Z,114490.28
2022-09-03T23:16:54.016Z,114490.28
2022-09-03T23:19:00.781Z,114490.28
2022-09-03T23:21:08.857Z,114490.28
2022-09-03T23:23:20.141Z,114490.28
2022-09-03T23:25:35.115Z,114490.28
2022-09-03T23:27:59.626Z,114490.28
2022-09-03T23:30:03.721Z,114490.28
2022-09-03T23:32:10.293Z,114490.28
2022-09-03T23:34:14.682Z,114490.28
2022-09-03T23:36:55.163Z,114490.28
2022-09-03T23:39:01.827Z,114490.28
2022-09-03T23:41:14.924Z,114490.28
2022-09-03T23:43:38.532Z,114490.28
2022-09-03T23:45:48.569Z,114490.28
2022-09-03T23:47:55.495Z,114490.28
2022-09-03T23:50:11.671Z,114490.28
2022-09-03T23:52:25.465Z,114490.28
2022-09-03T23:54:48.322Z,114490.28
2022-09-03T23:57:08.092Z,114490.28
2022-09-03T23:59:12.143Z,114490.28
